NOZ428 ENEV-EFKT
Flight info
| Callsign | NOZ428 |
|---|---|
| Flight time | 0h 38m |
| Altitude | 29000 |
| Route | OSKUB DCT EXUTI |
| Aircraft | B38M/M-SDE1FGHILORVWXY/HB1 |
Departure
| Time | 2026-04-24 15:53 |
|---|---|
| Airport | Harstad/Narvik Airport (ENEV) |
Arrival
| Time | 2026-04-24 16:31 |
|---|---|
| Airport | Kittilä International Airport (EFKT) |
| Time | Latitude | Longitude | Altitude | Speed | Heading |
|---|---|---|---|---|---|
| 2026-04-24 15:14 | 68.48971 | 16.68539 | 94 ft | 0 kts | 357° |
| 2026-04-24 15:42 | 68.48964 | 16.68540 | 94 ft | 2 kts | 357° |
| 2026-04-24 15:42 | 68.48944 | 16.68543 | 93 ft | 2 kts | 356° |
| 2026-04-24 15:42 | 68.48924 | 16.68547 | 95 ft | 3 kts | 352° |
| 2026-04-24 15:43 | 68.48918 | 16.68550 | 95 ft | 2 kts | 348° |
| 2026-04-24 15:47 | 68.48925 | 16.68533 | 96 ft | 2 kts | 309° |
| 2026-04-24 15:47 | 68.48924 | 16.68474 | 95 ft | 4 kts | 250° |
| 2026-04-24 15:48 | 68.48903 | 16.68384 | 93 ft | 10 kts | 238° |
| 2026-04-24 15:48 | 68.48864 | 16.68223 | 93 ft | 10 kts | 200° |
| 2026-04-24 15:48 | 68.48803 | 16.68232 | 91 ft | 9 kts | 178° |
| 2026-04-24 15:48 | 68.48736 | 16.68241 | 91 ft | 11 kts | 176° |
| 2026-04-24 15:49 | 68.48655 | 16.68251 | 92 ft | 12 kts | 177° |
| 2026-04-24 15:49 | 68.48582 | 16.68260 | 99 ft | 10 kts | 177° |
| 2026-04-24 15:49 | 68.48522 | 16.68268 | 101 ft | 9 kts | 177° |
| 2026-04-24 15:49 | 68.48455 | 16.68274 | 103 ft | 13 kts | 177° |
| 2026-04-24 15:50 | 68.48332 | 16.68291 | 104 ft | 21 kts | 177° |
| 2026-04-24 15:50 | 68.48173 | 16.68308 | 105 ft | 25 kts | 178° |
| 2026-04-24 15:50 | 68.48032 | 16.68323 | 103 ft | 17 kts | 178° |
| 2026-04-24 15:50 | 68.47934 | 16.68322 | 101 ft | 11 kts | 202° |
| 2026-04-24 15:51 | 68.47900 | 16.68099 | 92 ft | 17 kts | 266° |
| 2026-04-24 15:51 | 68.47910 | 16.67979 | 96 ft | 2 kts | 319° |
| 2026-04-24 15:51 | 68.47929 | 16.67960 | 95 ft | 4 kts | 354° |
| 2026-04-24 15:51 | 68.47952 | 16.67958 | 93 ft | 0 kts | 359° |
| 2026-04-24 15:52 | 68.47957 | 16.67958 | 94 ft | 4 kts | 359° |
| 2026-04-24 15:52 | 68.48281 | 16.67922 | 97 ft | 92 kts | 357° |
| 2026-04-24 15:53 | 68.49197 | 16.67807 | 142 ft | 164 kts | 357° |
| 2026-04-24 15:53 | 68.50365 | 16.67678 | 956 ft | 177 kts | 357° |
| 2026-04-24 15:53 | 68.51647 | 16.67481 | 1722 ft | 176 kts | 356° |
| 2026-04-24 15:53 | 68.52878 | 16.67321 | 2285 ft | 182 kts | 1° |
| 2026-04-24 15:54 | 68.54086 | 16.68614 | 2760 ft | 201 kts | 42° |
| 2026-04-24 15:54 | 68.54782 | 16.72078 | 3216 ft | 222 kts | 75° |
| 2026-04-24 15:54 | 68.54674 | 16.76433 | 3636 ft | 242 kts | 104° |
| 2026-04-24 15:54 | 68.54225 | 16.80866 | 4362 ft | 242 kts | 102° |
| 2026-04-24 15:55 | 68.53789 | 16.85343 | 5052 ft | 249 kts | 103° |
| 2026-04-24 15:55 | 68.53343 | 16.89956 | 5907 ft | 252 kts | 103° |
| 2026-04-24 15:55 | 68.52881 | 16.94654 | 6631 ft | 262 kts | 103° |
| 2026-04-24 15:55 | 68.52398 | 16.99597 | 7123 ft | 278 kts | 103° |
| 2026-04-24 15:56 | 68.51896 | 17.04676 | 7934 ft | 281 kts | 103° |
| 2026-04-24 15:56 | 68.51371 | 17.09905 | 8786 ft | 284 kts | 103° |
| 2026-04-24 15:56 | 68.50851 | 17.15073 | 9566 ft | 289 kts | 103° |
| 2026-04-24 15:56 | 68.50309 | 17.20425 | 10246 ft | 298 kts | 103° |
| 2026-04-24 15:57 | 68.49745 | 17.26008 | 10680 ft | 314 kts | 104° |
| 2026-04-24 15:57 | 68.49150 | 17.31881 | 11096 ft | 329 kts | 104° |
| 2026-04-24 15:57 | 68.48739 | 17.35919 | 11352 ft | 338 kts | 104° |
| 2026-04-24 15:57 | 68.47877 | 17.44288 | 12253 ft | 346 kts | 104° |
| 2026-04-24 15:58 | 68.47216 | 17.50643 | 12960 ft | 352 kts | 104° |
| 2026-04-24 15:58 | 68.46541 | 17.57093 | 13710 ft | 357 kts | 105° |
| 2026-04-24 15:58 | 68.45856 | 17.63647 | 14403 ft | 363 kts | 103° |
| 2026-04-24 15:58 | 68.45506 | 17.70482 | 15081 ft | 366 kts | 92° |
| 2026-04-24 15:59 | 68.45304 | 17.77451 | 15742 ft | 373 kts | 92° |
| 2026-04-24 15:59 | 68.45084 | 17.84518 | 16494 ft | 378 kts | 92° |
| 2026-04-24 15:59 | 68.44853 | 17.91707 | 17176 ft | 384 kts | 93° |
| 2026-04-24 15:59 | 68.44614 | 17.98992 | 17837 ft | 390 kts | 93° |
| 2026-04-24 16:00 | 68.44368 | 18.06385 | 18447 ft | 395 kts | 93° |
| 2026-04-24 16:00 | 68.44114 | 18.13882 | 18983 ft | 401 kts | 93° |
| 2026-04-24 16:00 | 68.43854 | 18.21486 | 19548 ft | 406 kts | 93° |
| 2026-04-24 16:00 | 68.43586 | 18.29184 | 20096 ft | 412 kts | 93° |
| 2026-04-24 16:01 | 68.43315 | 18.36904 | 20616 ft | 417 kts | 93° |
| 2026-04-24 16:01 | 68.43034 | 18.44797 | 21153 ft | 423 kts | 93° |
| 2026-04-24 16:01 | 68.42744 | 18.52803 | 21684 ft | 428 kts | 93° |
| 2026-04-24 16:01 | 68.42447 | 18.60902 | 22201 ft | 434 kts | 94° |
| 2026-04-24 16:02 | 68.42143 | 18.69110 | 22668 ft | 440 kts | 94° |
| 2026-04-24 16:02 | 68.41831 | 18.77401 | 23225 ft | 443 kts | 94° |
| 2026-04-24 16:02 | 68.41511 | 18.85778 | 23623 ft | 448 kts | 94° |
| 2026-04-24 16:02 | 68.41185 | 18.94232 | 24045 ft | 453 kts | 94° |
| 2026-04-24 16:03 | 68.40850 | 19.02769 | 24496 ft | 455 kts | 94° |
| 2026-04-24 16:03 | 68.40510 | 19.11361 | 24867 ft | 461 kts | 94° |
| 2026-04-24 16:03 | 68.40161 | 19.20020 | 25323 ft | 463 kts | 94° |
| 2026-04-24 16:03 | 68.39805 | 19.28745 | 25714 ft | 468 kts | 94° |
| 2026-04-24 16:04 | 68.39442 | 19.37551 | 26129 ft | 471 kts | 94° |
| 2026-04-24 16:04 | 68.39071 | 19.46416 | 26529 ft | 474 kts | 94° |
| 2026-04-24 16:04 | 68.38693 | 19.55335 | 26874 ft | 479 kts | 94° |
| 2026-04-24 16:04 | 68.38438 | 19.61291 | 27163 ft | 480 kts | 94° |
| 2026-04-24 16:05 | 68.37649 | 19.79409 | 27929 ft | 486 kts | 93° |
| 2026-04-24 16:05 | 68.37242 | 19.88553 | 28213 ft | 492 kts | 94° |
| 2026-04-24 16:06 | 68.36406 | 20.07042 | 28728 ft | 501 kts | 93° |
| 2026-04-24 16:06 | 68.35973 | 20.16432 | 28732 ft | 502 kts | 94° |
| 2026-04-24 16:07 | 68.34639 | 20.44618 | 28724 ft | 503 kts | 94° |
| 2026-04-24 16:07 | 68.33261 | 20.72743 | 28732 ft | 503 kts | 94° |
| 2026-04-24 16:08 | 68.31834 | 21.00846 | 28730 ft | 502 kts | 94° |
| 2026-04-24 16:09 | 68.30362 | 21.28867 | 28722 ft | 502 kts | 94° |
| 2026-04-24 16:09 | 68.29356 | 21.47507 | 28724 ft | 501 kts | 94° |
| 2026-04-24 16:11 | 68.26760 | 21.93839 | 28720 ft | 491 kts | 94° |
| 2026-04-24 16:11 | 68.26243 | 22.02805 | 28637 ft | 477 kts | 94° |
| 2026-04-24 16:11 | 68.25731 | 22.11573 | 28250 ft | 471 kts | 94° |
| 2026-04-24 16:12 | 68.24708 | 22.28887 | 27260 ft | 464 kts | 94° |
| 2026-04-24 16:12 | 68.24196 | 22.37430 | 26803 ft | 460 kts | 94° |
| 2026-04-24 16:12 | 68.23171 | 22.54309 | 25866 ft | 454 kts | 94° |
| 2026-04-24 16:13 | 68.22655 | 22.62673 | 25378 ft | 451 kts | 94° |
| 2026-04-24 16:13 | 68.21623 | 22.79222 | 24427 ft | 446 kts | 94° |
| 2026-04-24 16:14 | 68.20584 | 22.95629 | 23454 ft | 443 kts | 94° |
| 2026-04-24 16:14 | 68.20061 | 23.03779 | 22893 ft | 441 kts | 95° |
| 2026-04-24 16:14 | 68.19013 | 23.19921 | 21862 ft | 434 kts | 95° |
| 2026-04-24 16:15 | 68.18666 | 23.25200 | 21542 ft | 432 kts | 95° |
| 2026-04-24 16:15 | 68.17446 | 23.43574 | 20418 ft | 423 kts | 95° |
| 2026-04-24 16:16 | 68.16407 | 23.58966 | 19461 ft | 415 kts | 95° |
| 2026-04-24 16:16 | 68.15892 | 23.66560 | 19006 ft | 412 kts | 95° |
| 2026-04-24 16:17 | 68.14354 | 23.88930 | 17577 ft | 401 kts | 96° |
| 2026-04-24 16:17 | 68.13344 | 24.03387 | 16666 ft | 391 kts | 96° |
| 2026-04-24 16:18 | 68.12344 | 24.17537 | 15816 ft | 381 kts | 96° |
| 2026-04-24 16:18 | 68.10654 | 24.30767 | 14875 ft | 382 kts | 127° |
| 2026-04-24 16:18 | 68.08680 | 24.35434 | 14471 ft | 378 kts | 150° |
| 2026-04-24 16:19 | 68.03815 | 24.39987 | 13629 ft | 367 kts | 166° |
| 2026-04-24 16:19 | 68.01362 | 24.41807 | 13122 ft | 365 kts | 167° |
| 2026-04-24 16:20 | 67.96504 | 24.45301 | 12208 ft | 358 kts | 167° |
| 2026-04-24 16:20 | 67.91748 | 24.48660 | 11340 ft | 350 kts | 167° |
| 2026-04-24 16:20 | 67.89407 | 24.50303 | 10900 ft | 346 kts | 167° |
| 2026-04-24 16:21 | 67.84770 | 24.53353 | 10062 ft | 339 kts | 168° |
| 2026-04-24 16:21 | 67.82524 | 24.54791 | 9935 ft | 326 kts | 168° |
| 2026-04-24 16:21 | 67.80359 | 24.56177 | 9777 ft | 315 kts | 168° |
| 2026-04-24 16:22 | 67.78254 | 24.57525 | 9473 ft | 309 kts | 168° |
| 2026-04-24 16:22 | 67.74081 | 24.60194 | 8599 ft | 307 kts | 168° |
| 2026-04-24 16:22 | 67.72012 | 24.61512 | 8213 ft | 305 kts | 168° |
| 2026-04-24 16:23 | 67.69961 | 24.62818 | 7835 ft | 302 kts | 168° |
| 2026-04-24 16:23 | 67.67923 | 24.64110 | 7451 ft | 300 kts | 167° |
| 2026-04-24 16:23 | 67.65887 | 24.65396 | 7006 ft | 301 kts | 167° |
| 2026-04-24 16:24 | 67.61839 | 24.67944 | 6255 ft | 297 kts | 167° |
| 2026-04-24 16:24 | 67.59835 | 24.69204 | 5881 ft | 296 kts | 167° |
| 2026-04-24 16:24 | 67.57836 | 24.70457 | 5488 ft | 294 kts | 167° |
| 2026-04-24 16:24 | 67.55880 | 24.71682 | 5134 ft | 292 kts | 167° |
| 2026-04-24 16:25 | 67.53926 | 24.72903 | 4933 ft | 284 kts | 167° |
| 2026-04-24 16:25 | 67.52129 | 24.74816 | 4670 ft | 279 kts | 142° |
| 2026-04-24 16:25 | 67.50924 | 24.78581 | 4481 ft | 266 kts | 113° |
| 2026-04-24 16:26 | 67.51086 | 24.87022 | 4193 ft | 220 kts | 47° |
| 2026-04-24 16:26 | 67.52160 | 24.89475 | 4205 ft | 195 kts | 28° |
| 2026-04-24 16:26 | 67.54316 | 24.92951 | 3853 ft | 167 kts | 15° |
| 2026-04-24 16:27 | 67.55425 | 24.93299 | 3555 ft | 158 kts | 355° |
| 2026-04-24 16:27 | 67.56522 | 24.93052 | 3394 ft | 159 kts | 350° |
| 2026-04-24 16:27 | 67.57551 | 24.92618 | 3259 ft | 142 kts | 347° |
| 2026-04-24 16:27 | 67.58507 | 24.92112 | 3094 ft | 139 kts | 346° |
| 2026-04-24 16:28 | 67.59447 | 24.91550 | 2928 ft | 138 kts | 345° |
| 2026-04-24 16:28 | 67.60365 | 24.90973 | 2717 ft | 135 kts | 345° |
| 2026-04-24 16:28 | 67.62186 | 24.89815 | 2319 ft | 134 kts | 344° |
| 2026-04-24 16:29 | 67.63095 | 24.89226 | 2072 ft | 134 kts | 344° |
| 2026-04-24 16:29 | 67.64001 | 24.88621 | 1889 ft | 135 kts | 344° |
| 2026-04-24 16:29 | 67.65819 | 24.87411 | 1404 ft | 136 kts | 346° |
| 2026-04-24 16:30 | 67.67652 | 24.86263 | 984 ft | 136 kts | 346° |
| 2026-04-24 16:30 | 67.68580 | 24.85672 | 775 ft | 137 kts | 346° |
| 2026-04-24 16:30 | 67.69445 | 24.85116 | 652 ft | 117 kts | 346° |
| 2026-04-24 16:31 | 67.70165 | 24.84652 | 643 ft | 97 kts | 346° |
| 2026-04-24 16:31 | 67.70586 | 24.84380 | 643 ft | 27 kts | 346° |
| 2026-04-24 16:31 | 67.70672 | 24.84337 | 644 ft | 11 kts | 7° |
| 2026-04-24 16:31 | 67.70721 | 24.84422 | 644 ft | 8 kts | 63° |
| 2026-04-24 16:32 | 67.70733 | 24.84541 | 643 ft | 12 kts | 78° |
| 2026-04-24 16:32 | 67.70712 | 24.84777 | 641 ft | 9 kts | 168° |
| 2026-04-24 16:32 | 67.70628 | 24.84828 | 641 ft | 16 kts | 167° |
| 2026-04-24 16:32 | 67.70496 | 24.84909 | 641 ft | 23 kts | 167° |
| 2026-04-24 16:33 | 67.70317 | 24.85023 | 642 ft | 25 kts | 167° |
| 2026-04-24 16:33 | 67.70131 | 24.85138 | 642 ft | 30 kts | 167° |
| 2026-04-24 16:33 | 67.69939 | 24.85258 | 643 ft | 18 kts | 167° |
| 2026-04-24 16:33 | 67.69800 | 24.85344 | 645 ft | 22 kts | 167° |
| 2026-04-24 16:34 | 67.69659 | 24.85431 | 645 ft | 18 kts | 167° |
| 2026-04-24 16:34 | 67.69537 | 24.85517 | 644 ft | 13 kts | 148° |
| 2026-04-24 16:34 | 67.69496 | 24.85669 | 642 ft | 7 kts | 123° |
| 2026-04-24 16:34 | 67.69486 | 24.85706 | 642 ft | 3 kts | 124° |
| 2026-04-24 16:35 | 67.69483 | 24.85720 | 643 ft | 0 kts | 124° |